sensor_id;sensor_type;location;lat;lon;timestamp;pressure;altitude;pressure_sealevel;temperature;humidity
45369;BME280;51342;55.250;37.668;2022-12-15T00:04:10;99913.13;;;-7.39;76.34
45369;BME280;51342;55.250;37.668;2022-12-15T00:07:01;99911.13;;;-7.41;76.28
45369;BME280;51342;55.250;37.668;2022-12-15T00:09:51;99922.69;;;-7.36;76.43
45369;BME280;51342;55.250;37.668;2022-12-15T00:12:41;99921.97;;;-7.35;76.17
45369;BME280;51342;55.250;37.668;2022-12-15T00:15:31;99918.56;;;-7.36;76.28
45369;BME280;51342;55.250;37.668;2022-12-15T00:18:21;99927.78;;;-7.29;76.20
45369;BME280;51342;55.250;37.668;2022-12-15T00:21:11;99920.25;;;-7.29;76.17
45369;BME280;51342;55.250;37.668;2022-12-15T00:24:02;99913.09;;;-7.26;76.18
45369;BME280;51342;55.250;37.668;2022-12-15T00:26:53;99918.41;;;-7.17;76.19
45369;BME280;51342;55.250;37.668;2022-12-15T00:29:44;99927.84;;;-7.09;76.20
45369;BME280;51342;55.250;37.668;2022-12-15T00:32:35;99930.44;;;-7.02;76.13
45369;BME280;51342;55.250;37.668;2022-12-15T00:35:25;99934.13;;;-6.93;76.22
45369;BME280;51342;55.250;37.668;2022-12-15T00:38:15;99934.41;;;-6.84;76.20
45369;BME280;51342;55.250;37.668;2022-12-15T00:41:04;99933.03;;;-6.75;76.16
45369;BME280;51342;55.250;37.668;2022-12-15T00:43:36;99941.59;;;-6.68;75.92
45369;BME280;51342;55.250;37.668;2022-12-15T00:46:08;99935.72;;;-6.61;76.20
45369;BME280;51342;55.250;37.668;2022-12-15T00:48:58;99935.41;;;-6.57;76.26
45369;BME280;51342;55.250;37.668;2022-12-15T00:51:29;99930.59;;;-6.48;76.29
45369;BME280;51342;55.250;37.668;2022-12-15T00:54:19;99938.75;;;-6.44;76.32
45369;BME280;51342;55.250;37.668;2022-12-15T00:57:09;99932.84;;;-6.37;76.45
45369;BME280;51342;55.250;37.668;2022-12-15T01:00:00;99941.00;;;-6.32;76.70
45369;BME280;51342;55.250;37.668;2022-12-15T01:02:50;99940.16;;;-6.26;76.54
45369;BME280;51342;55.250;37.668;2022-12-15T01:05:40;99942.34;;;-6.22;76.74
45369;BME280;51342;55.250;37.668;2022-12-15T01:08:30;99935.56;;;-6.16;76.66
45369;BME280;51342;55.250;37.668;2022-12-15T01:11:20;99938.25;;;-6.14;76.69
45369;BME280;51342;55.250;37.668;2022-12-15T01:14:09;99939.88;;;-6.15;76.98
45369;BME280;51342;55.250;37.668;2022-12-15T01:17:00;99951.25;;;-6.11;77.03
45369;BME280;51342;55.250;37.668;2022-12-15T01:19:50;99961.91;;;-6.06;76.91
45369;BME280;51342;55.250;37.668;2022-12-15T01:22:40;99951.28;;;-6.04;77.16
45369;BME280;51342;55.250;37.668;2022-12-15T01:25:13;99955.63;;;-6.03;76.98
45369;BME280;51342;55.250;37.668;2022-12-15T01:27:45;99955.09;;;-6.00;77.00
45369;BME280;51342;55.250;37.668;2022-12-15T01:30:20;99963.94;;;-5.97;77.07
45369;BME280;51342;55.250;37.668;2022-12-15T01:32:58;99964.16;;;-5.95;77.01
45369;BME280;51342;55.250;37.668;2022-12-15T01:35:29;99962.88;;;-5.92;77.23
45369;BME280;51342;55.250;37.668;2022-12-15T01:38:01;99964.88;;;-5.89;77.11
45369;BME280;51342;55.250;37.668;2022-12-15T01:40:34;99974.72;;;-5.91;77.01
45369;BME280;51342;55.250;37.668;2022-12-15T01:43:22;99978.16;;;-5.90;77.08
45369;BME280;51342;55.250;37.668;2022-12-15T01:46:34;99982.47;;;-5.96;77.11
45369;BME280;51342;55.250;37.668;2022-12-15T01:49:17;99984.97;;;-5.96;77.09
45369;BME280;51342;55.250;37.668;2022-12-15T01:51:55;99988.81;;;-5.93;77.25
45369;BME280;51342;55.250;37.668;2022-12-15T01:54:35;99993.13;;;-5.92;77.11
45369;BME280;51342;55.250;37.668;2022-12-15T01:57:13;99995.63;;;-5.92;77.15
45369;BME280;51342;55.250;37.668;2022-12-15T01:59:50;99991.31;;;-5.93;77.25
45369;BME280;51342;55.250;37.668;2022-12-15T02:02:25;99995.97;;;-5.96;77.25
45369;BME280;51342;55.250;37.668;2022-12-15T02:04:59;100001.53;;;-5.98;77.29
45369;BME280;51342;55.250;37.668;2022-12-15T02:07:34;100005.66;;;-5.99;77.35
45369;BME280;51342;55.250;37.668;2022-12-15T02:10:07;100006.97;;;-5.95;77.32
45369;BME280;51342;55.250;37.668;2022-12-15T02:15:37;100006.63;;;-5.91;77.34
45369;BME280;51342;55.250;37.668;2022-12-15T02:18:21;100008.38;;;-5.90;77.14
45369;BME280;51342;55.250;37.668;2022-12-15T02:21:26;100002.44;;;-5.98;77.05
45369;BME280;51342;55.250;37.668;2022-12-15T02:24:29;100003.34;;;-5.97;77.04
45369;BME280;51342;55.250;37.668;2022-12-15T02:30:40;100009.41;;;-6.02;77.28
45369;BME280;51342;55.250;37.668;2022-12-15T02:38:35;100012.47;;;-6.05;77.27
45369;BME280;51342;55.250;37.668;2022-12-15T02:44:11;99979.56;;;-6.19;77.32
45369;BME280;51342;55.250;37.668;2022-12-15T02:58:28;100008.72;;;-6.21;77.32
45369;BME280;51342;55.250;37.668;2022-12-15T03:01:13;100006.19;;;-6.21;77.28
45369;BME280;51342;55.250;37.668;2022-12-15T03:03:49;100012.53;;;-6.18;77.31
45369;BME280;51342;55.250;37.668;2022-12-15T03:06:23;100009.13;;;-6.18;77.45
45369;BME280;51342;55.250;37.668;2022-12-15T03:08:56;100007.88;;;-6.15;77.34
45369;BME280;51342;55.250;37.668;2022-12-15T03:11:28;100014.53;;;-6.15;77.29
45369;BME280;51342;55.250;37.668;2022-12-15T03:14:02;100019.75;;;-6.14;77.22
45369;BME280;51342;55.250;37.668;2022-12-15T03:16:33;100023.69;;;-6.16;77.30
45369;BME280;51342;55.250;37.668;2022-12-15T03:19:05;100010.91;;;-6.17;77.29
45369;BME280;51342;55.250;37.668;2022-12-15T03:21:36;100012.59;;;-6.10;77.43
45369;BME280;51342;55.250;37.668;2022-12-15T03:24:07;100013.50;;;-6.10;77.25
45369;BME280;51342;55.250;37.668;2022-12-15T03:26:39;100018.13;;;-6.13;77.15
45369;BME280;51342;55.250;37.668;2022-12-15T03:29:10;100015.59;;;-6.13;77.34
45369;BME280;51342;55.250;37.668;2022-12-15T03:31:42;100019.97;;;-6.12;77.22
45369;BME280;51342;55.250;37.668;2022-12-15T03:34:14;100029.13;;;-6.12;77.32
45369;BME280;51342;55.250;37.668;2022-12-15T03:36:45;100034.34;;;-6.11;77.46
45369;BME280;51342;55.250;37.668;2022-12-15T03:39:17;100031.66;;;-6.12;77.25
45369;BME280;51342;55.250;37.668;2022-12-15T03:41:48;100035.44;;;-6.09;77.42
45369;BME280;51342;55.250;37.668;2022-12-15T03:44:20;100030.81;;;-6.06;77.32
45369;BME280;51342;55.250;37.668;2022-12-15T03:46:52;100035.31;;;-6.03;77.39
45369;BME280;51342;55.250;37.668;2022-12-15T03:49:24;100042.53;;;-5.99;77.27
45369;BME280;51342;55.250;37.668;2022-12-15T03:51:55;100041.28;;;-5.96;77.47
45369;BME280;51342;55.250;37.668;2022-12-15T03:54:27;100043.13;;;-5.95;77.22
45369;BME280;51342;55.250;37.668;2022-12-15T03:56:58;100039.00;;;-5.94;77.32
45369;BME280;51342;55.250;37.668;2022-12-15T03:59:30;100040.22;;;-5.98;77.31
45369;BME280;51342;55.250;37.668;2022-12-15T04:02:03;100047.59;;;-5.99;77.31
45369;BME280;51342;55.250;37.668;2022-12-15T04:04:35;100045.06;;;-5.99;77.46
45369;BME280;51342;55.250;37.668;2022-12-15T04:07:06;100040.34;;;-6.03;77.45
45369;BME280;51342;55.250;37.668;2022-12-15T04:09:39;100051.13;;;-6.04;77.45
45369;BME280;51342;55.250;37.668;2022-12-15T04:12:16;100046.22;;;-6.10;77.36
45369;BME280;51342;55.250;37.668;2022-12-15T04:14:48;100053.38;;;-6.13;77.46
45369;BME280;51342;55.250;37.668;2022-12-15T04:17:19;100047.56;;;-6.19;77.39
45369;BME280;51342;55.250;37.668;2022-12-15T04:19:51;100051.63;;;-6.27;77.48
45369;BME280;51342;55.250;37.668;2022-12-15T04:22:44;100065.38;;;-6.37;77.40
45369;BME280;51342;55.250;37.668;2022-12-15T04:25:21;100053.22;;;-6.47;77.35
45369;BME280;51342;55.250;37.668;2022-12-15T04:28:11;100063.91;;;-6.55;77.39
45369;BME280;51342;55.250;37.668;2022-12-15T04:31:07;100068.16;;;-6.61;77.44
45369;BME280;51342;55.250;37.668;2022-12-15T04:34:00;100070.88;;;-6.60;77.37
45369;BME280;51342;55.250;37.668;2022-12-15T04:36:52;100082.06;;;-6.58;77.43
45369;BME280;51342;55.250;37.668;2022-12-15T04:39:45;100075.00;;;-6.60;77.37
45369;BME280;51342;55.250;37.668;2022-12-15T04:42:40;100085.59;;;-6.63;77.34
45369;BME280;51342;55.250;37.668;2022-12-15T04:45:31;100071.19;;;-6.64;77.30
45369;BME280;51342;55.250;37.668;2022-12-15T04:48:21;100089.63;;;-6.58;77.42
45369;BME280;51342;55.250;37.668;2022-12-15T04:51:11;100100.97;;;-6.54;77.32
45369;BME280;51342;55.250;37.668;2022-12-15T04:54:01;100096.53;;;-6.50;77.22
45369;BME280;51342;55.250;37.668;2022-12-15T04:56:51;100099.03;;;-6.50;77.24
45369;BME280;51342;55.250;37.668;2022-12-15T04:59:41;100099.41;;;-6.47;77.22
45369;BME280;51342;55.250;37.668;2022-12-15T05:02:31;100113.84;;;-6.46;77.41
45369;BME280;51342;55.250;37.668;2022-12-15T05:05:20;100105.38;;;-6.46;77.32
45369;BME280;51342;55.250;37.668;2022-12-15T05:08:10;100106.28;;;-6.46;77.28
45369;BME280;51342;55.250;37.668;2022-12-15T05:11:00;100109.72;;;-6.45;77.38
45369;BME280;51342;55.250;37.668;2022-12-15T05:13:50;100115.84;;;-6.43;77.38
45369;BME280;51342;55.250;37.668;2022-12-15T05:16:41;100122.66;;;-6.42;77.24
45369;BME280;51342;55.250;37.668;2022-12-15T05:19:31;100120.38;;;-6.41;77.42
45369;BME280;51342;55.250;37.668;2022-12-15T05:22:21;100117.63;;;-6.42;77.37
45369;BME280;51342;55.250;37.668;2022-12-15T05:25:10;100120.38;;;-6.41;77.24
45369;BME280;51342;55.250;37.668;2022-12-15T05:28:00;100121.66;;;-6.37;77.53
45369;BME280;51342;55.250;37.668;2022-12-15T05:30:54;100124.78;;;-6.32;77.53
45369;BME280;51342;55.250;37.668;2022-12-15T05:33:44;100124.97;;;-6.31;77.59
45369;BME280;51342;55.250;37.668;2022-12-15T05:36:15;100122.06;;;-6.34;77.38
45369;BME280;51342;55.250;37.668;2022-12-15T05:38:51;100119.22;;;-6.30;77.39
45369;BME280;51342;55.250;37.668;2022-12-15T05:41:22;100121.22;;;-6.27;77.63
45369;BME280;51342;55.250;37.668;2022-12-15T05:43:54;100124.47;;;-6.28;77.53
45369;BME280;51342;55.250;37.668;2022-12-15T05:46:25;100129.88;;;-6.25;77.39
45369;BME280;51342;55.250;37.668;2022-12-15T05:48:57;100127.78;;;-6.22;77.41
45369;BME280;51342;55.250;37.668;2022-12-15T05:51:28;100135.50;;;-6.21;77.51
45369;BME280;51342;55.250;37.668;2022-12-15T05:54:02;100134.41;;;-6.23;77.39
45369;BME280;51342;55.250;37.668;2022-12-15T05:56:34;100136.41;;;-6.20;77.40
45369;BME280;51342;55.250;37.668;2022-12-15T05:59:06;100142.56;;;-6.18;77.61
45369;BME280;51342;55.250;37.668;2022-12-15T06:01:37;100137.53;;;-6.18;77.46
45369;BME280;51342;55.250;37.668;2022-12-15T06:04:10;100142.94;;;-6.15;77.98
45369;BME280;51342;55.250;37.668;2022-12-15T06:06:45;100136.47;;;-6.13;77.70
45369;BME280;51342;55.250;37.668;2022-12-15T06:09:18;100140.84;;;-6.12;77.51
45369;BME280;51342;55.250;37.668;2022-12-15T06:11:51;100143.53;;;-6.10;77.60
45369;BME280;51342;55.250;37.668;2022-12-15T06:14:23;100143.91;;;-6.07;77.79
45369;BME280;51342;55.250;37.668;2022-12-15T06:16:54;100154.78;;;-6.01;77.67
45369;BME280;51342;55.250;37.668;2022-12-15T06:19:25;100152.84;;;-5.97;77.54
45369;BME280;51342;55.250;37.668;2022-12-15T06:21:57;100153.25;;;-5.94;77.71
45369;BME280;51342;55.250;37.668;2022-12-15T06:24:28;100153.59;;;-5.91;77.60
45369;BME280;51342;55.250;37.668;2022-12-15T06:27:00;100152.19;;;-5.89;77.55
45369;BME280;51342;55.250;37.668;2022-12-15T06:29:31;100150.03;;;-5.93;77.51
45369;BME280;51342;55.250;37.668;2022-12-15T06:32:03;100154.72;;;-5.89;77.65
45369;BME280;51342;55.250;37.668;2022-12-15T06:34:34;100160.84;;;-5.87;77.61
45369;BME280;51342;55.250;37.668;2022-12-15T06:37:07;100166.06;;;-5.85;77.58
45369;BME280;51342;55.250;37.668;2022-12-15T06:39:38;100158.72;;;-5.83;77.43
45369;BME280;51342;55.250;37.668;2022-12-15T06:42:10;100167.38;;;-5.81;77.35
45369;BME280;51342;55.250;37.668;2022-12-15T06:44:42;100164.28;;;-5.86;77.33
45369;BME280;51342;55.250;37.668;2022-12-15T06:47:13;100176.75;;;-5.80;77.45
45369;BME280;51342;55.250;37.668;2022-12-15T06:49:45;100152.97;;;-5.82;77.51
45369;BME280;51342;55.250;37.668;2022-12-15T06:52:18;100168.16;;;-5.75;77.41
45369;BME280;51342;55.250;37.668;2022-12-15T06:54:49;100169.97;;;-5.74;77.49
45369;BME280;51342;55.250;37.668;2022-12-15T06:57:20;100173.97;;;-5.69;77.21
45369;BME280;51342;55.250;37.668;2022-12-15T06:59:52;100176.38;;;-5.64;77.37
45369;BME280;51342;55.250;37.668;2022-12-15T07:02:23;100179.06;;;-5.62;77.40
45369;BME280;51342;55.250;37.668;2022-12-15T07:04:55;100181.28;;;-5.58;77.21
45369;BME280;51342;55.250;37.668;2022-12-15T07:07:27;100178.03;;;-5.57;77.31
45369;BME280;51342;55.250;37.668;2022-12-15T07:09:58;100192.84;;;-5.53;77.03
45369;BME280;51342;55.250;37.668;2022-12-15T07:12:30;100193.75;;;-5.52;77.25
45369;BME280;51342;55.250;37.668;2022-12-15T07:15:02;100192.16;;;-5.52;77.14
45369;BME280;51342;55.250;37.668;2022-12-15T07:17:34;100193.03;;;-5.51;77.15
45369;BME280;51342;55.250;37.668;2022-12-15T07:20:10;100202.22;;;-5.52;76.96
45369;BME280;51342;55.250;37.668;2022-12-15T07:22:41;100201.91;;;-5.48;76.99
45369;BME280;51342;55.250;37.668;2022-12-15T07:25:14;100194.97;;;-5.56;76.87
45369;BME280;51342;55.250;37.668;2022-12-15T07:27:46;100210.69;;;-5.51;76.64
45369;BME280;51342;55.250;37.668;2022-12-15T07:30:17;100221.31;;;-5.54;76.65
45369;BME280;51342;55.250;37.668;2022-12-15T07:32:48;100213.34;;;-5.57;76.64
45369;BME280;51342;55.250;37.668;2022-12-15T07:35:21;100224.84;;;-5.59;76.59
45369;BME280;51342;55.250;37.668;2022-12-15T07:37:54;100225.22;;;-5.56;76.55
45369;BME280;51342;55.250;37.668;2022-12-15T07:40:26;100216.06;;;-5.55;76.83
45369;BME280;51342;55.250;37.668;2022-12-15T07:43:00;100209.41;;;-5.55;76.57
45369;BME280;51342;55.250;37.668;2022-12-15T07:45:32;100205.88;;;-5.50;76.56
45369;BME280;51342;55.250;37.668;2022-12-15T07:48:05;100201.91;;;-5.48;76.42
45369;BME280;51342;55.250;37.668;2022-12-15T07:50:37;100208.03;;;-5.46;76.30
45369;BME280;51342;55.250;37.668;2022-12-15T07:53:09;100190.03;;;-5.49;76.30
45369;BME280;51342;55.250;37.668;2022-12-15T07:55:41;100195.66;;;-5.44;76.34
45369;BME280;51342;55.250;37.668;2022-12-15T07:58:12;100205.63;;;-5.39;76.42
45369;BME280;51342;55.250;37.668;2022-12-15T08:00:47;100213.53;;;-5.36;76.16
45369;BME280;51342;55.250;37.668;2022-12-15T08:03:21;100203.78;;;-5.40;75.95
45369;BME280;51342;55.250;37.668;2022-12-15T08:05:53;100201.06;;;-5.41;76.12
45369;BME280;51342;55.250;37.668;2022-12-15T08:08:26;100216.19;;;-5.41;76.08
45369;BME280;51342;55.250;37.668;2022-12-15T08:10:57;100201.97;;;-5.41;76.18
45369;BME280;51342;55.250;37.668;2022-12-15T08:13:29;100200.88;;;-5.43;76.23
45369;BME280;51342;55.250;37.668;2022-12-15T08:16:00;100200.69;;;-5.44;75.80
45369;BME280;51342;55.250;37.668;2022-12-15T08:18:41;100194.66;;;-5.52;75.91
45369;BME280;51342;55.250;37.668;2022-12-15T08:21:18;100191.44;;;-5.51;75.77
45369;BME280;51342;55.250;37.668;2022-12-15T08:23:52;100202.22;;;-5.52;75.99
45369;BME280;51342;55.250;37.668;2022-12-15T08:26:30;100205.88;;;-5.50;76.05
45369;BME280;51342;55.250;37.668;2022-12-15T08:29:06;100199.34;;;-5.55;75.88
45369;BME280;51342;55.250;37.668;2022-12-15T08:31:38;100196.94;;;-5.61;75.80
45369;BME280;51342;55.250;37.668;2022-12-15T08:34:12;100189.69;;;-5.65;75.94
45369;BME280;51342;55.250;37.668;2022-12-15T08:36:44;100196.34;;;-5.65;75.71
45369;BME280;51342;55.250;37.668;2022-12-15T08:39:16;100192.53;;;-5.69;75.71
45369;BME280;51342;55.250;37.668;2022-12-15T08:41:48;100203.63;;;-5.74;75.74
45369;BME280;51342;55.250;37.668;2022-12-15T08:44:19;100192.28;;;-5.77;75.74
45369;BME280;51342;55.250;37.668;2022-12-15T08:46:51;100208.88;;;-5.72;75.51
45369;BME280;51342;55.250;37.668;2022-12-15T08:49:26;100210.28;;;-5.74;75.58
45369;BME280;51342;55.250;37.668;2022-12-15T08:51:58;100195.50;;;-5.78;75.41
45369;BME280;51342;55.250;37.668;2022-12-15T08:54:29;100204.53;;;-5.73;75.30
45369;BME280;51342;55.250;37.668;2022-12-15T08:57:02;100202.41;;;-5.70;75.38
45369;BME280;51342;55.250;37.668;2022-12-15T08:59:35;100199.72;;;-5.72;75.23
45369;BME280;51342;55.250;37.668;2022-12-15T09:02:10;100198.81;;;-5.72;75.13
45369;BME280;51342;55.250;37.668;2022-12-15T09:04:43;100201.50;;;-5.71;75.02
45369;BME280;51342;55.250;37.668;2022-12-15T09:07:18;100203.31;;;-5.70;75.13
45369;BME280;51342;55.250;37.668;2022-12-15T09:09:49;100194.84;;;-5.70;74.81
45369;BME280;51342;55.250;37.668;2022-12-15T09:12:21;100178.88;;;-5.83;74.78
45369;BME280;51342;55.250;37.668;2022-12-15T09:14:53;100189.34;;;-5.80;74.72
45369;BME280;51342;55.250;37.668;2022-12-15T09:17:24;100190.97;;;-5.81;74.84
45369;BME280;51342;55.250;37.668;2022-12-15T09:19:56;100179.56;;;-5.84;74.87
45369;BME280;51342;55.250;37.668;2022-12-15T09:22:27;100177.59;;;-5.87;74.79
45369;BME280;51342;55.250;37.668;2022-12-15T09:24:59;100174.16;;;-5.88;74.71
45369;BME280;51342;55.250;37.668;2022-12-15T09:27:30;100155.44;;;-5.90;74.59
45369;BME280;51342;55.250;37.668;2022-12-15T09:30:04;100150.22;;;-5.91;74.75
45369;BME280;51342;55.250;37.668;2022-12-15T09:32:37;100146.25;;;-5.89;74.94
45369;BME280;51342;55.250;37.668;2022-12-15T09:35:08;100138.34;;;-5.85;74.62
45369;BME280;51342;55.250;37.668;2022-12-15T09:37:41;100133.72;;;-5.82;74.71
45369;BME280;51342;55.250;37.668;2022-12-15T09:40:13;100126.88;;;-5.83;74.63
45369;BME280;51342;55.250;37.668;2022-12-15T09:42:49;100130.00;;;-5.78;74.54
45369;BME280;51342;55.250;37.668;2022-12-15T09:45:27;100127.13;;;-5.74;74.73
45369;BME280;51342;55.250;37.668;2022-12-15T09:48:11;100125.50;;;-5.74;74.48
45369;BME280;51342;55.250;37.668;2022-12-15T09:50:50;100113.44;;;-5.76;74.35
45369;BME280;51342;55.250;37.668;2022-12-15T09:53:25;100114.53;;;-5.74;74.38
45369;BME280;51342;55.250;37.668;2022-12-15T09:56:05;100093.22;;;-5.83;74.46
45369;BME280;51342;55.250;37.668;2022-12-15T10:01:53;100089.84;;;-5.77;74.63
45369;BME280;51342;55.250;37.668;2022-12-15T10:04:44;100090.22;;;-5.74;74.47
45369;BME280;51342;55.250;37.668;2022-12-15T10:07:42;100086.44;;;-5.77;74.33
45369;BME280;51342;55.250;37.668;2022-12-15T10:10:23;100093.16;;;-5.71;74.52
45369;BME280;51342;55.250;37.668;2022-12-15T10:13:00;100089.72;;;-5.71;74.39
45369;BME280;51342;55.250;37.668;2022-12-15T10:15:58;100077.75;;;-5.79;74.30
45369;BME280;51342;55.250;37.668;2022-12-15T10:18:38;100085.00;;;-5.75;74.43
45369;BME280;51342;55.250;37.668;2022-12-15T10:21:14;100079.47;;;-5.73;74.42
45369;BME280;51342;55.250;37.668;2022-12-15T10:23:47;100081.75;;;-5.74;74.26
45369;BME280;51342;55.250;37.668;2022-12-15T10:26:22;100085.00;;;-5.75;74.20
45369;BME280;51342;55.250;37.668;2022-12-15T10:29:21;100087.84;;;-5.79;74.24
45369;BME280;51342;55.250;37.668;2022-12-15T10:32:03;100090.03;;;-5.75;74.35
45369;BME280;51342;55.250;37.668;2022-12-15T10:34:39;100093.16;;;-5.71;74.28
45369;BME280;51342;55.250;37.668;2022-12-15T10:37:20;100093.28;;;-5.76;74.29
45369;BME280;51342;55.250;37.668;2022-12-15T10:39:52;100098.50;;;-5.75;74.43
45369;BME280;51342;55.250;37.668;2022-12-15T10:42:25;100097.59;;;-5.75;74.21
45369;BME280;51342;55.250;37.668;2022-12-15T10:44:57;100103.03;;;-5.72;74.49
45369;BME280;51342;55.250;37.668;2022-12-15T10:47:30;100096.16;;;-5.73;74.33
45369;BME280;51342;55.250;37.668;2022-12-15T10:50:23;100100.25;;;-5.81;74.28
45369;BME280;51342;55.250;37.668;2022-12-15T10:52:55;100103.50;;;-5.82;74.22
45369;BME280;51342;55.250;37.668;2022-12-15T10:55:45;100103.63;;;-5.88;74.29
45369;BME280;51342;55.250;37.668;2022-12-15T10:58:19;100110.16;;;-5.82;74.40
45369;BME280;51342;55.250;37.668;2022-12-15T11:01:13;100115.00;;;-5.84;74.35
45369;BME280;51342;55.250;37.668;2022-12-15T11:03:45;100112.13;;;-5.80;74.47
45369;BME280;51342;55.250;37.668;2022-12-15T11:06:23;100110.88;;;-5.83;74.39
45369;BME280;51342;55.250;37.668;2022-12-15T11:09:08;100118.91;;;-5.86;74.25
45369;BME280;51342;55.250;37.668;2022-12-15T11:11:53;100116.22;;;-5.88;74.28
45369;BME280;51342;55.250;37.668;2022-12-15T11:14:48;100111.66;;;-5.90;74.64
45369;BME280;51342;55.250;37.668;2022-12-15T11:17:21;100110.47;;;-5.87;74.64
45369;BME280;51342;55.250;37.668;2022-12-15T11:20:14;100098.56;;;-5.95;74.47
45369;BME280;51342;55.250;37.668;2022-12-15T11:23:40;100105.59;;;-5.92;74.72
45369;BME280;51342;55.250;37.668;2022-12-15T11:25:56;100099.63;;;-5.93;74.88
45369;BME280;51342;55.250;37.668;2022-12-15T11:28:35;100103.97;;;-5.92;74.81
45369;BME280;51342;55.250;37.668;2022-12-15T11:33:51;100090.13;;;-5.88;74.76
45369;BME280;51342;55.250;37.668;2022-12-15T11:42:23;100095.53;;;-5.85;74.54
45369;BME280;51342;55.250;37.668;2022-12-15T11:45:13;100085.97;;;-5.88;74.69
45369;BME280;51342;55.250;37.668;2022-12-15T11:56:17;100075.00;;;-5.88;74.64
45369;BME280;51342;55.250;37.668;2022-12-15T12:05:04;100073.28;;;-6.02;74.61
45369;BME280;51342;55.250;37.668;2022-12-15T12:07:56;100061.81;;;-6.00;74.72
45369;BME280;51342;55.250;37.668;2022-12-15T12:10:54;100064.63;;;-6.04;74.71
45369;BME280;51342;55.250;37.668;2022-12-15T12:19:00;100059.91;;;-6.08;74.61
45369;BME280;51342;55.250;37.668;2022-12-15T12:21:42;100049.47;;;-6.11;74.79
45369;BME280;51342;55.250;37.668;2022-12-15T12:24:25;100050.88;;;-6.13;74.69
45369;BME280;51342;55.250;37.668;2022-12-15T12:27:03;100050.69;;;-6.15;74.66
45369;BME280;51342;55.250;37.668;2022-12-15T12:29:52;100048.41;;;-6.26;74.65
45369;BME280;51342;55.250;37.668;2022-12-15T12:35:43;100039.06;;;-6.27;74.60
45369;BME280;51342;55.250;37.668;2022-12-15T12:38:23;100020.00;;;-6.25;74.89
45369;BME280;51342;55.250;37.668;2022-12-15T12:41:24;100022.63;;;-6.30;74.69
45369;BME280;51342;55.250;37.668;2022-12-15T12:44:03;100017.59;;;-6.30;74.67
45369;BME280;51342;55.250;37.668;2022-12-15T12:46:43;100005.72;;;-6.31;74.78
45369;BME280;51342;55.250;37.668;2022-12-15T12:51:56;99984.88;;;-6.30;74.79
45369;BME280;51342;55.250;37.668;2022-12-15T12:57:34;99982.50;;;-6.36;74.74
45369;BME280;51342;55.250;37.668;2022-12-15T13:00:14;99972.94;;;-6.38;74.88
45369;BME280;51342;55.250;37.668;2022-12-15T13:02:54;99965.28;;;-6.33;74.79
45369;BME280;51342;55.250;37.668;2022-12-15T13:05:32;99964.69;;;-6.37;74.81
45369;BME280;51342;55.250;37.668;2022-12-15T13:10:39;99954.47;;;-6.32;74.78
45369;BME280;51342;55.250;37.668;2022-12-15T13:16:25;99947.06;;;-6.37;74.54
45369;BME280;51342;55.250;37.668;2022-12-15T13:19:07;99946.69;;;-6.41;74.58
45369;BME280;51342;55.250;37.668;2022-12-15T13:21:51;99947.38;;;-6.42;74.82
45369;BME280;51342;55.250;37.668;2022-12-15T13:29:59;99931.97;;;-6.57;74.38
45369;BME280;51342;55.250;37.668;2022-12-15T13:32:40;99940.94;;;-6.59;74.56
45369;BME280;51342;55.250;37.668;2022-12-15T13:37:53;99936.78;;;-6.59;74.56
45369;BME280;51342;55.250;37.668;2022-12-15T13:43:09;99938.22;;;-6.61;74.35
45369;BME280;51342;55.250;37.668;2022-12-15T13:46:15;99927.19;;;-6.69;74.21
45369;BME280;51342;55.250;37.668;2022-12-15T13:51:44;99925.19;;;-6.71;74.37
45369;BME280;51342;55.250;37.668;2022-12-15T13:54:28;99914.75;;;-6.74;74.28
45369;BME280;51342;55.250;37.668;2022-12-15T13:57:09;99920.47;;;-6.75;74.35
45369;BME280;51342;55.250;37.668;2022-12-15T13:59:49;99932.34;;;-6.74;74.20
45369;BME280;51342;55.250;37.668;2022-12-15T14:02:26;99913.84;;;-6.75;74.31
45369;BME280;51342;55.250;37.668;2022-12-15T14:05:13;99913.03;;;-6.81;74.26
45369;BME280;51342;55.250;37.668;2022-12-15T14:08:09;99913.16;;;-6.86;74.14
45369;BME280;51342;55.250;37.668;2022-12-15T14:10:45;99909.44;;;-6.83;74.15
45369;BME280;51342;55.250;37.668;2022-12-15T14:13:24;99897.28;;;-6.93;74.22
45369;BME280;51342;55.250;37.668;2022-12-15T14:19:10;99905.69;;;-6.99;74.14
45369;BME280;51342;55.250;37.668;2022-12-15T14:21:57;99908.31;;;-7.05;74.17
45369;BME280;51342;55.250;37.668;2022-12-15T14:24:32;99909.31;;;-7.10;74.19
45369;BME280;51342;55.250;37.668;2022-12-15T14:27:04;99916.75;;;-7.04;74.19
45369;BME280;51342;55.250;37.668;2022-12-15T14:29:36;99918.38;;;-7.05;74.13
45369;BME280;51342;55.250;37.668;2022-12-15T14:32:09;99916.38;;;-7.07;74.00
45369;BME280;51342;55.250;37.668;2022-12-15T14:34:42;99915.97;;;-7.10;73.97
45369;BME280;51342;55.250;37.668;2022-12-15T14:37:16;99909.13;;;-7.11;74.11
45369;BME280;51342;55.250;37.668;2022-12-15T14:39:49;99909.56;;;-7.08;74.05
45369;BME280;51342;55.250;37.668;2022-12-15T14:42:25;99905.13;;;-7.16;74.00
45369;BME280;51342;55.250;37.668;2022-12-15T14:45:01;99921.22;;;-7.22;73.74
45369;BME280;51342;55.250;37.668;2022-12-15T14:47:34;99918.72;;;-7.22;73.92
45369;BME280;51342;55.250;37.668;2022-12-15T14:50:08;99923.84;;;-7.27;73.93
45369;BME280;51342;55.250;37.668;2022-12-15T14:52:43;99921.69;;;-7.31;74.08
45369;BME280;51342;55.250;37.668;2022-12-15T14:55:32;99920.47;;;-7.40;73.93
45369;BME280;51342;55.250;37.668;2022-12-15T14:58:33;99918.59;;;-7.49;74.03
45369;BME280;51342;55.250;37.668;2022-12-15T15:01:27;99912.06;;;-7.54;74.14
45369;BME280;51342;55.250;37.668;2022-12-15T15:04:04;99924.63;;;-7.54;74.18
45369;BME280;51342;55.250;37.668;2022-12-15T15:06:38;99927.56;;;-7.76;74.47
45369;BME280;51342;55.250;37.668;2022-12-15T15:09:39;99913.28;;;-7.70;74.28
45369;BME280;51342;55.250;37.668;2022-12-15T15:15:25;99905.66;;;-7.64;74.25
45369;BME280;51342;55.250;37.668;2022-12-15T15:17:58;99898.00;;;-7.59;74.31